Lindenhurst, Illinois
Current Conditions -  °F | °C
As of 6:55 AM on Friday 24 Oct 2014 (Local Time) from KUGN Reporting Station
Overcast Overcast  
Wind Chill: 49°   Ceiling: 800
Heat Index: 49°   Visibility: 7mi
Dew Point: 46°   Wind: 0mph
Humidity: 90%   Direction: NA
Pressure: 30.04"   Gusts: NA
Location:  42.4132°N, 88.0615°W
Report Text: KUGN 241155Z 00000KT 7SM OVC008 09/08 A3004 RMK AO2 SLP174 T00940078 10111 20061 50001
Loading
Personal Weather Stations






























Interactive Weather Map
Tropical Storm Tracking
New forecast layout! Learn more

10-Day Weather Forecast

Advertisements
Track Severe Weather on mobile